sensor_id;sensor_type;location;lat;lon;timestamp;P1;durP1;ratioP1;P2;durP2;ratioP2
60006;SDS011;45863;50.336;3.536;2023-05-01T00:02:08;22.40;;;15.37;;
60006;SDS011;45863;50.336;3.536;2023-05-01T00:04:34;23.55;;;15.40;;
60006;SDS011;45863;50.336;3.536;2023-05-01T00:06:59;20.42;;;14.80;;
60006;SDS011;45863;50.336;3.536;2023-05-01T00:09:26;22.42;;;14.75;;
60006;SDS011;45863;50.336;3.536;2023-05-01T00:11:51;21.05;;;15.07;;
60006;SDS011;45863;50.336;3.536;2023-05-01T00:14:16;21.33;;;14.47;;
60006;SDS011;45863;50.336;3.536;2023-05-01T00:16:41;21.70;;;16.85;;
60006;SDS011;45863;50.336;3.536;2023-05-01T00:19:07;23.10;;;16.90;;
60006;SDS011;45863;50.336;3.536;2023-05-01T00:21:32;21.60;;;15.60;;
60006;SDS011;45863;50.336;3.536;2023-05-01T00:23:57;21.83;;;14.77;;
60006;SDS011;45863;50.336;3.536;2023-05-01T00:26:22;21.23;;;16.17;;
60006;SDS011;45863;50.336;3.536;2023-05-01T00:28:51;22.27;;;16.10;;
60006;SDS011;45863;50.336;3.536;2023-05-01T00:31:16;21.33;;;16.03;;
60006;SDS011;45863;50.336;3.536;2023-05-01T00:33:42;22.02;;;16.52;;
60006;SDS011;45863;50.336;3.536;2023-05-01T00:36:07;23.33;;;16.55;;
60006;SDS011;45863;50.336;3.536;2023-05-01T00:38:33;22.40;;;16.30;;
60006;SDS011;45863;50.336;3.536;2023-05-01T00:40:59;23.20;;;17.10;;
60006;SDS011;45863;50.336;3.536;2023-05-01T00:43:24;22.85;;;15.82;;
60006;SDS011;45863;50.336;3.536;2023-05-01T00:45:49;21.90;;;17.00;;
60006;SDS011;45863;50.336;3.536;2023-05-01T00:48:15;22.63;;;16.20;;
60006;SDS011;45863;50.336;3.536;2023-05-01T00:50:40;23.92;;;16.38;;
60006;SDS011;45863;50.336;3.536;2023-05-01T00:53:05;23.90;;;16.33;;
60006;SDS011;45863;50.336;3.536;2023-05-01T00:55:31;22.10;;;16.38;;
60006;SDS011;45863;50.336;3.536;2023-05-01T00:57:57;23.77;;;15.93;;
60006;SDS011;45863;50.336;3.536;2023-05-01T01:00:23;23.10;;;16.60;;
60006;SDS011;45863;50.336;3.536;2023-05-01T01:02:48;19.92;;;14.98;;
60006;SDS011;45863;50.336;3.536;2023-05-01T01:05:14;21.70;;;15.77;;
60006;SDS011;45863;50.336;3.536;2023-05-01T01:10:29;22.90;;;16.33;;
60006;SDS011;45863;50.336;3.536;2023-05-01T01:13:13;24.00;;;16.63;;
60006;SDS011;45863;50.336;3.536;2023-05-01T01:15:56;28.25;;;16.85;;
60006;SDS011;45863;50.336;3.536;2023-05-01T01:18:25;29.95;;;17.30;;
60006;SDS011;45863;50.336;3.536;2023-05-01T01:23:41;22.85;;;16.70;;
60006;SDS011;45863;50.336;3.536;2023-05-01T01:26:22;21.40;;;15.55;;
60006;SDS011;45863;50.336;3.536;2023-05-01T01:31:17;23.05;;;15.02;;
60006;SDS011;45863;50.336;3.536;2023-05-01T01:36:19;23.25;;;16.80;;
60006;SDS011;45863;50.336;3.536;2023-05-01T01:38:45;26.30;;;17.08;;
60006;SDS011;45863;50.336;3.536;2023-05-01T01:41:19;25.10;;;17.40;;
60006;SDS011;45863;50.336;3.536;2023-05-01T01:43:45;22.67;;;15.77;;
60006;SDS011;45863;50.336;3.536;2023-05-01T01:46:11;27.92;;;18.42;;
60006;SDS011;45863;50.336;3.536;2023-05-01T01:48:39;23.98;;;16.75;;
60006;SDS011;45863;50.336;3.536;2023-05-01T01:51:11;21.95;;;16.70;;
60006;SDS011;45863;50.336;3.536;2023-05-01T01:53:37;23.42;;;17.85;;
60006;SDS011;45863;50.336;3.536;2023-05-01T01:56:03;26.52;;;17.90;;
60006;SDS011;45863;50.336;3.536;2023-05-01T01:58:30;24.88;;;17.27;;
60006;SDS011;45863;50.336;3.536;2023-05-01T02:00:56;25.85;;;19.02;;
60006;SDS011;45863;50.336;3.536;2023-05-01T02:03:21;27.50;;;20.50;;
60006;SDS011;45863;50.336;3.536;2023-05-01T02:05:48;29.08;;;20.20;;
60006;SDS011;45863;50.336;3.536;2023-05-01T02:08:14;29.58;;;21.75;;
60006;SDS011;45863;50.336;3.536;2023-05-01T02:10:40;32.40;;;21.15;;
60006;SDS011;45863;50.336;3.536;2023-05-01T02:13:07;28.88;;;21.70;;
60006;SDS011;45863;50.336;3.536;2023-05-01T02:15:32;30.15;;;22.13;;
60006;SDS011;45863;50.336;3.536;2023-05-01T02:17:58;30.65;;;22.35;;
60006;SDS011;45863;50.336;3.536;2023-05-01T02:20:26;33.38;;;22.88;;
60006;SDS011;45863;50.336;3.536;2023-05-01T02:22:52;30.90;;;23.70;;
60006;SDS011;45863;50.336;3.536;2023-05-01T02:25:17;29.38;;;21.98;;
60006;SDS011;45863;50.336;3.536;2023-05-01T02:27:46;29.60;;;21.33;;
60006;SDS011;45863;50.336;3.536;2023-05-01T02:30:12;29.08;;;21.30;;
60006;SDS011;45863;50.336;3.536;2023-05-01T02:32:37;31.95;;;23.65;;
60006;SDS011;45863;50.336;3.536;2023-05-01T02:35:03;33.67;;;25.55;;
60006;SDS011;45863;50.336;3.536;2023-05-01T02:37:28;34.83;;;25.52;;
60006;SDS011;45863;50.336;3.536;2023-05-01T02:39:55;38.17;;;26.42;;
60006;SDS011;45863;50.336;3.536;2023-05-01T02:42:20;38.15;;;25.08;;
60006;SDS011;45863;50.336;3.536;2023-05-01T02:44:49;36.08;;;25.92;;
60006;SDS011;45863;50.336;3.536;2023-05-01T02:47:17;35.67;;;24.77;;
60006;SDS011;45863;50.336;3.536;2023-05-01T02:49:43;36.90;;;24.58;;
60006;SDS011;45863;50.336;3.536;2023-05-01T02:52:12;32.35;;;24.92;;
60006;SDS011;45863;50.336;3.536;2023-05-01T02:54:38;33.42;;;24.67;;
60006;SDS011;45863;50.336;3.536;2023-05-01T02:57:03;35.35;;;25.52;;
60006;SDS011;45863;50.336;3.536;2023-05-01T02:59:29;35.30;;;25.92;;
60006;SDS011;45863;50.336;3.536;2023-05-01T03:01:54;38.90;;;28.02;;
60006;SDS011;45863;50.336;3.536;2023-05-01T03:04:20;42.42;;;28.50;;
60006;SDS011;45863;50.336;3.536;2023-05-01T03:06:45;38.28;;;27.92;;
60006;SDS011;45863;50.336;3.536;2023-05-01T03:09:10;41.15;;;28.10;;
60006;SDS011;45863;50.336;3.536;2023-05-01T03:11:36;40.42;;;28.95;;
60006;SDS011;45863;50.336;3.536;2023-05-01T03:14:02;37.35;;;29.00;;
60006;SDS011;45863;50.336;3.536;2023-05-01T03:16:27;44.10;;;30.37;;
60006;SDS011;45863;50.336;3.536;2023-05-01T03:18:52;47.50;;;32.25;;
60006;SDS011;45863;50.336;3.536;2023-05-01T03:21:17;51.13;;;35.63;;
60006;SDS011;45863;50.336;3.536;2023-05-01T03:23:42;58.28;;;37.72;;
60006;SDS011;45863;50.336;3.536;2023-05-01T03:26:08;56.53;;;38.75;;
60006;SDS011;45863;50.336;3.536;2023-05-01T03:28:33;64.47;;;42.03;;
60006;SDS011;45863;50.336;3.536;2023-05-01T03:30:58;59.58;;;40.67;;
60006;SDS011;45863;50.336;3.536;2023-05-01T03:33:23;65.50;;;40.78;;
60006;SDS011;45863;50.336;3.536;2023-05-01T03:35:58;60.95;;;41.72;;
60006;SDS011;45863;50.336;3.536;2023-05-01T03:38:24;56.97;;;38.70;;
60006;SDS011;45863;50.336;3.536;2023-05-01T03:40:50;60.72;;;40.50;;
60006;SDS011;45863;50.336;3.536;2023-05-01T03:43:15;61.63;;;41.47;;
60006;SDS011;45863;50.336;3.536;2023-05-01T03:45:41;64.80;;;41.83;;
60006;SDS011;45863;50.336;3.536;2023-05-01T03:48:06;59.23;;;38.87;;
60006;SDS011;45863;50.336;3.536;2023-05-01T03:50:31;62.00;;;38.80;;
60006;SDS011;45863;50.336;3.536;2023-05-01T03:52:56;61.13;;;40.20;;
60006;SDS011;45863;50.336;3.536;2023-05-01T03:55:22;55.38;;;38.15;;
60006;SDS011;45863;50.336;3.536;2023-05-01T03:57:47;55.78;;;38.28;;
60006;SDS011;45863;50.336;3.536;2023-05-01T04:00:12;60.80;;;40.65;;
60006;SDS011;45863;50.336;3.536;2023-05-01T04:02:38;55.63;;;38.05;;
60006;SDS011;45863;50.336;3.536;2023-05-01T04:05:03;58.20;;;38.55;;
60006;SDS011;45863;50.336;3.536;2023-05-01T04:07:28;59.20;;;38.45;;
60006;SDS011;45863;50.336;3.536;2023-05-01T04:09:54;61.95;;;41.83;;
60006;SDS011;45863;50.336;3.536;2023-05-01T04:12:19;63.28;;;42.00;;
60006;SDS011;45863;50.336;3.536;2023-05-01T04:14:44;66.33;;;43.00;;
60006;SDS011;45863;50.336;3.536;2023-05-01T04:17:10;67.15;;;43.58;;
60006;SDS011;45863;50.336;3.536;2023-05-01T04:19:36;64.32;;;43.60;;
60006;SDS011;45863;50.336;3.536;2023-05-01T04:22:01;66.13;;;42.92;;
60006;SDS011;45863;50.336;3.536;2023-05-01T04:24:27;57.17;;;39.50;;
60006;SDS011;45863;50.336;3.536;2023-05-01T04:26:52;60.33;;;38.77;;
60006;SDS011;45863;50.336;3.536;2023-05-01T04:29:18;59.88;;;37.83;;
60006;SDS011;45863;50.336;3.536;2023-05-01T04:31:43;59.80;;;39.30;;
60006;SDS011;45863;50.336;3.536;2023-05-01T04:34:08;58.50;;;38.72;;
60006;SDS011;45863;50.336;3.536;2023-05-01T04:36:33;61.50;;;40.95;;
60006;SDS011;45863;50.336;3.536;2023-05-01T04:38:59;64.10;;;40.60;;
60006;SDS011;45863;50.336;3.536;2023-05-01T04:41:24;69.57;;;43.50;;
60006;SDS011;45863;50.336;3.536;2023-05-01T04:43:49;62.42;;;42.55;;
60006;SDS011;45863;50.336;3.536;2023-05-01T04:46:14;65.47;;;41.05;;
60006;SDS011;45863;50.336;3.536;2023-05-01T04:48:40;58.45;;;40.72;;
60006;SDS011;45863;50.336;3.536;2023-05-01T04:51:05;62.38;;;39.13;;
60006;SDS011;45863;50.336;3.536;2023-05-01T04:53:30;56.78;;;38.17;;
60006;SDS011;45863;50.336;3.536;2023-05-01T04:55:56;66.78;;;42.05;;
60006;SDS011;45863;50.336;3.536;2023-05-01T04:58:21;66.30;;;41.17;;
60006;SDS011;45863;50.336;3.536;2023-05-01T05:00:46;65.10;;;43.08;;
60006;SDS011;45863;50.336;3.536;2023-05-01T05:03:11;67.65;;;44.20;;
60006;SDS011;45863;50.336;3.536;2023-05-01T05:05:37;65.28;;;43.13;;
60006;SDS011;45863;50.336;3.536;2023-05-01T05:08:02;65.70;;;42.65;;
60006;SDS011;45863;50.336;3.536;2023-05-01T05:10:27;63.25;;;41.00;;
60006;SDS011;45863;50.336;3.536;2023-05-01T05:12:52;65.53;;;42.20;;
60006;SDS011;45863;50.336;3.536;2023-05-01T05:15:18;67.60;;;42.67;;
60006;SDS011;45863;50.336;3.536;2023-05-01T05:17:43;62.15;;;41.22;;
60006;SDS011;45863;50.336;3.536;2023-05-01T05:20:09;63.28;;;41.78;;
60006;SDS011;45863;50.336;3.536;2023-05-01T05:22:35;68.70;;;43.85;;
60006;SDS011;45863;50.336;3.536;2023-05-01T05:25:01;68.65;;;42.75;;
60006;SDS011;45863;50.336;3.536;2023-05-01T05:27:28;68.75;;;41.67;;
60006;SDS011;45863;50.336;3.536;2023-05-01T05:29:53;63.42;;;41.38;;
60006;SDS011;45863;50.336;3.536;2023-05-01T05:32:19;63.97;;;42.43;;
60006;SDS011;45863;50.336;3.536;2023-05-01T05:34:44;68.13;;;43.80;;
60006;SDS011;45863;50.336;3.536;2023-05-01T05:37:09;82.73;;;49.87;;
60006;SDS011;45863;50.336;3.536;2023-05-01T05:39:34;92.07;;;56.67;;
60006;SDS011;45863;50.336;3.536;2023-05-01T05:41:59;88.30;;;54.30;;
60006;SDS011;45863;50.336;3.536;2023-05-01T05:44:25;84.40;;;52.60;;
60006;SDS011;45863;50.336;3.536;2023-05-01T05:46:50;80.32;;;49.20;;
60006;SDS011;45863;50.336;3.536;2023-05-01T05:49:15;77.20;;;49.23;;
60006;SDS011;45863;50.336;3.536;2023-05-01T05:51:40;75.53;;;47.45;;
60006;SDS011;45863;50.336;3.536;2023-05-01T05:54:06;71.28;;;46.15;;
60006;SDS011;45863;50.336;3.536;2023-05-01T05:56:31;78.53;;;47.25;;
60006;SDS011;45863;50.336;3.536;2023-05-01T05:58:56;72.53;;;45.95;;
60006;SDS011;45863;50.336;3.536;2023-05-01T06:01:22;72.72;;;45.78;;
60006;SDS011;45863;50.336;3.536;2023-05-01T06:03:47;70.78;;;44.33;;
60006;SDS011;45863;50.336;3.536;2023-05-01T06:06:13;66.82;;;44.08;;
60006;SDS011;45863;50.336;3.536;2023-05-01T06:08:38;65.60;;;42.92;;
60006;SDS011;45863;50.336;3.536;2023-05-01T06:11:03;63.30;;;41.35;;
60006;SDS011;45863;50.336;3.536;2023-05-01T06:13:28;61.63;;;40.10;;
60006;SDS011;45863;50.336;3.536;2023-05-01T06:15:54;58.20;;;40.13;;
60006;SDS011;45863;50.336;3.536;2023-05-01T06:18:19;60.85;;;40.42;;
60006;SDS011;45863;50.336;3.536;2023-05-01T06:20:44;57.28;;;39.13;;
60006;SDS011;45863;50.336;3.536;2023-05-01T06:23:11;59.70;;;38.90;;
60006;SDS011;45863;50.336;3.536;2023-05-01T06:25:37;54.58;;;37.00;;
60006;SDS011;45863;50.336;3.536;2023-05-01T06:28:03;55.65;;;36.97;;
60006;SDS011;45863;50.336;3.536;2023-05-01T06:30:28;54.45;;;37.28;;
60006;SDS011;45863;50.336;3.536;2023-05-01T06:32:53;58.10;;;38.63;;
60006;SDS011;45863;50.336;3.536;2023-05-01T06:35:19;57.08;;;37.38;;
60006;SDS011;45863;50.336;3.536;2023-05-01T06:37:45;50.97;;;35.03;;
60006;SDS011;45863;50.336;3.536;2023-05-01T06:40:10;49.58;;;35.25;;
60006;SDS011;45863;50.336;3.536;2023-05-01T06:42:36;49.58;;;34.40;;
60006;SDS011;45863;50.336;3.536;2023-05-01T06:45:01;54.85;;;35.40;;
60006;SDS011;45863;50.336;3.536;2023-05-01T06:47:27;50.97;;;35.70;;
60006;SDS011;45863;50.336;3.536;2023-05-01T06:49:53;52.23;;;36.23;;
60006;SDS011;45863;50.336;3.536;2023-05-01T06:52:18;50.33;;;33.60;;
60006;SDS011;45863;50.336;3.536;2023-05-01T06:54:43;50.90;;;35.83;;
60006;SDS011;45863;50.336;3.536;2023-05-01T06:57:08;49.37;;;34.20;;
60006;SDS011;45863;50.336;3.536;2023-05-01T06:59:33;48.77;;;33.30;;
60006;SDS011;45863;50.336;3.536;2023-05-01T07:01:59;48.22;;;32.72;;
60006;SDS011;45863;50.336;3.536;2023-05-01T07:04:24;47.47;;;33.58;;
60006;SDS011;45863;50.336;3.536;2023-05-01T07:06:49;46.88;;;31.13;;
60006;SDS011;45863;50.336;3.536;2023-05-01T07:09:14;48.33;;;33.13;;
60006;SDS011;45863;50.336;3.536;2023-05-01T07:11:40;48.38;;;32.95;;
60006;SDS011;45863;50.336;3.536;2023-05-01T07:14:06;48.58;;;33.05;;
60006;SDS011;45863;50.336;3.536;2023-05-01T07:16:31;45.10;;;32.35;;
60006;SDS011;45863;50.336;3.536;2023-05-01T07:18:57;47.92;;;32.13;;
60006;SDS011;45863;50.336;3.536;2023-05-01T07:21:22;51.57;;;33.43;;
60006;SDS011;45863;50.336;3.536;2023-05-01T07:23:47;47.38;;;32.63;;
60006;SDS011;45863;50.336;3.536;2023-05-01T07:26:12;48.35;;;33.88;;
60006;SDS011;45863;50.336;3.536;2023-05-01T07:28:38;46.83;;;33.10;;
60006;SDS011;45863;50.336;3.536;2023-05-01T07:31:03;49.10;;;33.30;;
60006;SDS011;45863;50.336;3.536;2023-05-01T07:33:28;48.75;;;34.75;;
60006;SDS011;45863;50.336;3.536;2023-05-01T07:35:53;48.83;;;34.38;;
60006;SDS011;45863;50.336;3.536;2023-05-01T07:38:19;48.43;;;35.97;;
60006;SDS011;45863;50.336;3.536;2023-05-01T07:40:44;48.38;;;32.15;;
60006;SDS011;45863;50.336;3.536;2023-05-01T07:43:09;48.65;;;33.05;;
60006;SDS011;45863;50.336;3.536;2023-05-01T07:45:38;48.50;;;33.85;;
60006;SDS011;45863;50.336;3.536;2023-05-01T07:48:04;47.63;;;33.38;;
60006;SDS011;45863;50.336;3.536;2023-05-01T07:50:30;49.65;;;36.08;;
60006;SDS011;45863;50.336;3.536;2023-05-01T07:52:55;50.97;;;33.55;;
60006;SDS011;45863;50.336;3.536;2023-05-01T07:55:21;47.75;;;31.65;;
60006;SDS011;45863;50.336;3.536;2023-05-01T07:57:46;51.20;;;32.25;;
60006;SDS011;45863;50.336;3.536;2023-05-01T08:00:12;48.13;;;32.22;;
60006;SDS011;45863;50.336;3.536;2023-05-01T08:02:37;48.70;;;33.78;;
60006;SDS011;45863;50.336;3.536;2023-05-01T08:05:02;46.40;;;33.33;;
60006;SDS011;45863;50.336;3.536;2023-05-01T08:07:28;48.42;;;33.60;;
60006;SDS011;45863;50.336;3.536;2023-05-01T08:09:53;48.85;;;32.22;;
60006;SDS011;45863;50.336;3.536;2023-05-01T08:12:18;49.13;;;31.98;;
60006;SDS011;45863;50.336;3.536;2023-05-01T08:14:43;46.83;;;31.93;;
60006;SDS011;45863;50.336;3.536;2023-05-01T08:17:09;50.70;;;32.33;;
60006;SDS011;45863;50.336;3.536;2023-05-01T08:19:34;44.17;;;31.37;;
60006;SDS011;45863;50.336;3.536;2023-05-01T08:21:59;50.05;;;32.22;;
60006;SDS011;45863;50.336;3.536;2023-05-01T08:24:25;47.13;;;33.70;;
60006;SDS011;45863;50.336;3.536;2023-05-01T08:26:50;47.97;;;33.08;;
60006;SDS011;45863;50.336;3.536;2023-05-01T08:29:15;49.55;;;34.33;;
60006;SDS011;45863;50.336;3.536;2023-05-01T08:31:40;48.70;;;32.90;;
60006;SDS011;45863;50.336;3.536;2023-05-01T08:34:07;47.17;;;32.55;;
60006;SDS011;45863;50.336;3.536;2023-05-01T08:36:33;45.50;;;32.78;;
60006;SDS011;45863;50.336;3.536;2023-05-01T08:38:58;47.50;;;32.30;;
60006;SDS011;45863;50.336;3.536;2023-05-01T08:41:23;49.93;;;35.10;;
60006;SDS011;45863;50.336;3.536;2023-05-01T08:43:49;49.90;;;32.30;;
60006;SDS011;45863;50.336;3.536;2023-05-01T08:46:16;48.35;;;33.35;;
60006;SDS011;45863;50.336;3.536;2023-05-01T08:48:45;45.47;;;31.92;;
60006;SDS011;45863;50.336;3.536;2023-05-01T08:51:11;43.65;;;32.65;;
60006;SDS011;45863;50.336;3.536;2023-05-01T08:53:38;44.08;;;33.08;;
60006;SDS011;45863;50.336;3.536;2023-05-01T08:56:05;45.65;;;31.67;;
60006;SDS011;45863;50.336;3.536;2023-05-01T08:58:31;46.90;;;32.05;;
60006;SDS011;45863;50.336;3.536;2023-05-01T09:00:58;47.08;;;33.17;;
60006;SDS011;45863;50.336;3.536;2023-05-01T09:03:25;47.53;;;31.55;;
60006;SDS011;45863;50.336;3.536;2023-05-01T09:05:51;46.30;;;31.80;;
60006;SDS011;45863;50.336;3.536;2023-05-01T09:08:17;44.50;;;30.33;;
60006;SDS011;45863;50.336;3.536;2023-05-01T09:10:44;45.88;;;30.92;;
60006;SDS011;45863;50.336;3.536;2023-05-01T09:13:10;42.65;;;31.55;;
60006;SDS011;45863;50.336;3.536;2023-05-01T09:15:35;42.75;;;30.75;;
60006;SDS011;45863;50.336;3.536;2023-05-01T09:18:00;47.15;;;31.85;;
60006;SDS011;45863;50.336;3.536;2023-05-01T09:20:26;45.28;;;29.50;;
60006;SDS011;45863;50.336;3.536;2023-05-01T09:22:52;47.13;;;32.00;;
60006;SDS011;45863;50.336;3.536;2023-05-01T09:25:18;43.63;;;30.70;;
60006;SDS011;45863;50.336;3.536;2023-05-01T09:27:43;44.72;;;31.08;;
60006;SDS011;45863;50.336;3.536;2023-05-01T09:30:09;40.20;;;29.52;;
60006;SDS011;45863;50.336;3.536;2023-05-01T09:32:34;41.92;;;28.33;;
60006;SDS011;45863;50.336;3.536;2023-05-01T09:35:10;44.03;;;31.17;;
60006;SDS011;45863;50.336;3.536;2023-05-01T09:37:35;40.65;;;27.58;;
60006;SDS011;45863;50.336;3.536;2023-05-01T09:42:26;41.17;;;28.90;;
60006;SDS011;45863;50.336;3.536;2023-05-01T09:44:51;44.60;;;30.85;;
60006;SDS011;45863;50.336;3.536;2023-05-01T09:47:20;45.15;;;31.05;;
60006;SDS011;45863;50.336;3.536;2023-05-01T09:49:46;42.80;;;30.08;;
60006;SDS011;45863;50.336;3.536;2023-05-01T09:52:13;35.03;;;26.05;;
60006;SDS011;45863;50.336;3.536;2023-05-01T09:54:39;45.38;;;28.35;;
60006;SDS011;45863;50.336;3.536;2023-05-01T09:57:04;37.58;;;27.90;;
60006;SDS011;45863;50.336;3.536;2023-05-01T09:59:30;39.47;;;28.50;;
60006;SDS011;45863;50.336;3.536;2023-05-01T10:01:58;42.20;;;31.45;;
60006;SDS011;45863;50.336;3.536;2023-05-01T10:04:33;48.60;;;32.58;;
60006;SDS011;45863;50.336;3.536;2023-05-01T10:07:19;46.75;;;32.72;;
60006;SDS011;45863;50.336;3.536;2023-05-01T10:09:44;46.10;;;31.65;;
60006;SDS011;45863;50.336;3.536;2023-05-01T10:12:09;40.50;;;30.00;;
60006;SDS011;45863;50.336;3.536;2023-05-01T10:14:56;41.72;;;30.63;;
60006;SDS011;45863;50.336;3.536;2023-05-01T10:17:21;43.65;;;28.17;;
60006;SDS011;45863;50.336;3.536;2023-05-01T10:19:47;38.08;;;27.27;;
60006;SDS011;45863;50.336;3.536;2023-05-01T10:22:13;39.80;;;28.20;;
60006;SDS011;45863;50.336;3.536;2023-05-01T10:24:38;41.25;;;29.13;;
60006;SDS011;45863;50.336;3.536;2023-05-01T10:27:07;43.08;;;29.95;;
60006;SDS011;45863;50.336;3.536;2023-05-01T10:29:36;42.45;;;30.63;;
60006;SDS011;45863;50.336;3.536;2023-05-01T10:32:02;39.55;;;28.13;;
60006;SDS011;45863;50.336;3.536;2023-05-01T10:34:28;36.13;;;26.15;;
60006;SDS011;45863;50.336;3.536;2023-05-01T10:36:56;36.25;;;26.67;;
60006;SDS011;45863;50.336;3.536;2023-05-01T10:39:30;35.72;;;26.50;;
60006;SDS011;45863;50.336;3.536;2023-05-01T10:44:22;28.83;;;22.00;;
60006;SDS011;45863;50.336;3.536;2023-05-01T10:46:47;27.65;;;21.52;;
60006;SDS011;45863;50.336;3.536;2023-05-01T10:49:12;22.70;;;18.80;;
60006;SDS011;45863;50.336;3.536;2023-05-01T10:51:56;24.10;;;18.10;;
60006;SDS011;45863;50.336;3.536;2023-05-01T10:54:23;24.75;;;19.73;;
60006;SDS011;45863;50.336;3.536;2023-05-01T10:56:48;23.73;;;17.80;;
60006;SDS011;45863;50.336;3.536;2023-05-01T10:59:13;21.40;;;17.38;;
60006;SDS011;45863;50.336;3.536;2023-05-01T11:04:43;23.73;;;19.30;;
60006;SDS011;45863;50.336;3.536;2023-05-01T11:12:00;22.52;;;19.08;;
60006;SDS011;45863;50.336;3.536;2023-05-01T11:14:26;20.77;;;17.77;;
60006;SDS011;45863;50.336;3.536;2023-05-01T11:16:51;21.23;;;17.08;;
60006;SDS011;45863;50.336;3.536;2023-05-01T11:21:44;23.50;;;19.13;;
60006;SDS011;45863;50.336;3.536;2023-05-01T11:24:09;21.27;;;18.83;;
60006;SDS011;45863;50.336;3.536;2023-05-01T11:26:38;22.08;;;17.52;;
60006;SDS011;45863;50.336;3.536;2023-05-01T11:29:04;24.08;;;18.92;;
60006;SDS011;45863;50.336;3.536;2023-05-01T11:31:30;25.25;;;19.60;;
60006;SDS011;45863;50.336;3.536;2023-05-01T11:33:55;24.63;;;20.80;;
60006;SDS011;45863;50.336;3.536;2023-05-01T11:36:21;26.45;;;20.92;;
60006;SDS011;45863;50.336;3.536;2023-05-01T11:38:50;26.20;;;19.00;;
60006;SDS011;45863;50.336;3.536;2023-05-01T11:41:18;21.88;;;16.92;;
60006;SDS011;45863;50.336;3.536;2023-05-01T11:46:25;24.83;;;19.20;;
60006;SDS011;45863;50.336;3.536;2023-05-01T11:48:57;23.33;;;19.02;;
60006;SDS011;45863;50.336;3.536;2023-05-01T11:51:22;27.00;;;19.83;;
60006;SDS011;45863;50.336;3.536;2023-05-01T11:54:04;24.98;;;20.90;;
60006;SDS011;45863;50.336;3.536;2023-05-01T11:56:30;25.80;;;19.35;;
60006;SDS011;45863;50.336;3.536;2023-05-01T11:58:56;23.55;;;19.42;;
60006;SDS011;45863;50.336;3.536;2023-05-01T12:04:23;25.17;;;19.15;;
60006;SDS011;45863;50.336;3.536;2023-05-01T12:06:48;22.15;;;18.08;;
60006;SDS011;45863;50.336;3.536;2023-05-01T12:11:42;20.73;;;17.38;;
60006;SDS011;45863;50.336;3.536;2023-05-01T12:14:07;20.27;;;16.30;;
60006;SDS011;45863;50.336;3.536;2023-05-01T12:16:33;23.08;;;17.67;;
60006;SDS011;45863;50.336;3.536;2023-05-01T12:18:59;22.13;;;17.85;;
60006;SDS011;45863;50.336;3.536;2023-05-01T12:21:24;32.47;;;22.95;;
60006;SDS011;45863;50.336;3.536;2023-05-01T12:23:51;34.65;;;27.27;;
60006;SDS011;45863;50.336;3.536;2023-05-01T12:26:19;30.02;;;25.48;;
60006;SDS011;45863;50.336;3.536;2023-05-01T12:28:55;32.38;;;24.70;;
60006;SDS011;45863;50.336;3.536;2023-05-01T12:31:20;32.53;;;26.77;;
60006;SDS011;45863;50.336;3.536;2023-05-01T12:33:53;33.05;;;27.13;;
60006;SDS011;45863;50.336;3.536;2023-05-01T12:36:19;34.10;;;26.67;;
60006;SDS011;45863;50.336;3.536;2023-05-01T12:39:22;27.05;;;23.88;;
60006;SDS011;45863;50.336;3.536;2023-05-01T12:44:24;22.90;;;19.10;;
60006;SDS011;45863;50.336;3.536;2023-05-01T12:47:00;19.70;;;16.98;;
60006;SDS011;45863;50.336;3.536;2023-05-01T12:49:25;21.00;;;17.30;;
60006;SDS011;45863;50.336;3.536;2023-05-01T12:51:53;19.17;;;17.13;;
60006;SDS011;45863;50.336;3.536;2023-05-01T12:54:19;21.08;;;15.65;;
60006;SDS011;45863;50.336;3.536;2023-05-01T12:56:44;19.08;;;15.45;;
60006;SDS011;45863;50.336;3.536;2023-05-01T12:59:23;18.42;;;15.02;;
60006;SDS011;45863;50.336;3.536;2023-05-01T13:02:05;19.85;;;15.25;;
60006;SDS011;45863;50.336;3.536;2023-05-01T13:04:30;19.80;;;15.30;;
60006;SDS011;45863;50.336;3.536;2023-05-01T13:06:56;22.60;;;19.60;;
60006;SDS011;45863;50.336;3.536;2023-05-01T13:09:22;21.63;;;17.05;;
60006;SDS011;45863;50.336;3.536;2023-05-01T13:12:00;23.17;;;17.80;;
60006;SDS011;45863;50.336;3.536;2023-05-01T13:14:36;18.13;;;14.00;;
60006;SDS011;45863;50.336;3.536;2023-05-01T13:17:10;18.17;;;14.02;;
60006;SDS011;45863;50.336;3.536;2023-05-01T13:19:36;16.90;;;10.80;;
60006;SDS011;45863;50.336;3.536;2023-05-01T13:22:01;18.25;;;11.40;;
60006;SDS011;45863;50.336;3.536;2023-05-01T13:24:39;18.27;;;13.02;;
60006;SDS011;45863;50.336;3.536;2023-05-01T13:27:09;19.98;;;13.75;;
60006;SDS011;45863;50.336;3.536;2023-05-01T13:29:34;15.90;;;11.27;;
60006;SDS011;45863;50.336;3.536;2023-05-01T13:32:01;11.85;;;8.55;;
60006;SDS011;45863;50.336;3.536;2023-05-01T13:34:31;13.73;;;8.90;;
60006;SDS011;45863;50.336;3.536;2023-05-01T13:36:57;11.05;;;7.95;;
60006;SDS011;45863;50.336;3.536;2023-05-01T13:39:23;12.70;;;8.82;;
60006;SDS011;45863;50.336;3.536;2023-05-01T13:41:48;12.98;;;8.18;;
60006;SDS011;45863;50.336;3.536;2023-05-01T13:44:14;13.27;;;8.32;;
60006;SDS011;45863;50.336;3.536;2023-05-01T13:46:40;14.18;;;8.63;;
60006;SDS011;45863;50.336;3.536;2023-05-01T13:49:09;11.07;;;8.00;;
60006;SDS011;45863;50.336;3.536;2023-05-01T13:51:41;13.20;;;7.20;;
60006;SDS011;45863;50.336;3.536;2023-05-01T13:54:10;9.63;;;5.05;;
60006;SDS011;45863;50.336;3.536;2023-05-01T13:56:36;7.63;;;4.45;;
60006;SDS011;45863;50.336;3.536;2023-05-01T13:59:03;7.22;;;4.25;;
60006;SDS011;45863;50.336;3.536;2023-05-01T14:01:29;7.20;;;4.20;;
60006;SDS011;45863;50.336;3.536;2023-05-01T14:03:54;7.77;;;4.07;;
60006;SDS011;45863;50.336;3.536;2023-05-01T14:06:24;6.93;;;4.05;;
60006;SDS011;45863;50.336;3.536;2023-05-01T14:08:50;10.10;;;4.72;;
60006;SDS011;45863;50.336;3.536;2023-05-01T14:11:16;12.15;;;7.35;;
60006;SDS011;45863;50.336;3.536;2023-05-01T14:13:42;15.68;;;9.45;;
60006;SDS011;45863;50.336;3.536;2023-05-01T14:16:09;12.50;;;9.02;;
60006;SDS011;45863;50.336;3.536;2023-05-01T14:18:35;14.90;;;10.23;;
60006;SDS011;45863;50.336;3.536;2023-05-01T14:21:00;16.90;;;11.32;;
60006;SDS011;45863;50.336;3.536;2023-05-01T14:23:26;15.82;;;10.05;;
60006;SDS011;45863;50.336;3.536;2023-05-01T14:25:51;15.52;;;11.60;;
60006;SDS011;45863;50.336;3.536;2023-05-01T14:28:17;20.73;;;12.40;;
60006;SDS011;45863;50.336;3.536;2023-05-01T14:30:42;19.05;;;13.45;;
60006;SDS011;45863;50.336;3.536;2023-05-01T14:33:09;19.92;;;14.07;;
60006;SDS011;45863;50.336;3.536;2023-05-01T14:35:35;19.00;;;13.23;;
60006;SDS011;45863;50.336;3.536;2023-05-01T14:38:19;19.75;;;13.15;;
60006;SDS011;45863;50.336;3.536;2023-05-01T14:40:45;15.70;;;10.68;;
60006;SDS011;45863;50.336;3.536;2023-05-01T14:43:18;19.88;;;11.60;;
60006;SDS011;45863;50.336;3.536;2023-05-01T14:45:43;21.27;;;13.38;;
60006;SDS011;45863;50.336;3.536;2023-05-01T14:48:23;22.20;;;15.38;;
60006;SDS011;45863;50.336;3.536;2023-05-01T14:50:48;21.42;;;16.05;;
60006;SDS011;45863;50.336;3.536;2023-05-01T14:53:14;28.05;;;19.23;;
60006;SDS011;45863;50.336;3.536;2023-05-01T14:55:40;31.92;;;22.00;;
60006;SDS011;45863;50.336;3.536;2023-05-01T14:58:05;33.67;;;23.05;;